createdAt,value
2023-04-15T00:01:12.313Z,8.93
2023-04-15T00:03:39.912Z,7.43
2023-04-15T00:06:07.762Z,9.30
2023-04-15T00:08:35.090Z,7.90
2023-04-15T00:11:05.694Z,4.65
2023-04-15T00:13:34.188Z,6.20
2023-04-15T00:16:01.689Z,5.45
2023-04-15T00:18:29.885Z,7.75
2023-04-15T00:20:57.273Z,6.63
2023-04-15T00:23:24.565Z,4.70
2023-04-15T00:25:52.028Z,7.03
2023-04-15T00:28:19.274Z,14.20
2023-04-15T00:30:47.331Z,11.50
2023-04-15T00:33:14.619Z,8.77
2023-04-15T00:35:42.070Z,8.68
2023-04-15T00:38:09.403Z,5.60
2023-04-15T00:40:36.642Z,5.65
2023-04-15T00:43:04.443Z,8.13
2023-04-15T00:45:32.102Z,3.33
2023-04-15T00:47:59.515Z,5.47
2023-04-15T00:50:26.751Z,5.05
2023-04-15T00:52:54.066Z,7.05
2023-04-15T00:55:21.428Z,6.43
2023-04-15T00:57:48.759Z,2.63
2023-04-15T01:00:16.664Z,6.97
2023-04-15T01:02:44.058Z,3.92
2023-04-15T01:05:11.535Z,5.97
2023-04-15T01:07:38.863Z,8.52
2023-04-15T01:10:07.065Z,4.22
2023-04-15T01:12:34.421Z,4.78
2023-04-15T01:15:01.737Z,3.63
2023-04-15T01:17:29.570Z,5.60
2023-04-15T01:19:58.137Z,7.38
2023-04-15T01:22:26.706Z,9.05
2023-04-15T01:24:54.364Z,4.05
2023-04-15T01:27:21.630Z,9.25
2023-04-15T01:29:48.889Z,5.50
2023-04-15T01:32:16.496Z,9.13
2023-04-15T01:34:44.656Z,4.80
2023-04-15T01:37:11.910Z,5.90
2023-04-15T01:39:39.622Z,5.65
2023-04-15T01:42:07.074Z,6.65
2023-04-15T01:44:34.328Z,7.47
2023-04-15T01:47:01.673Z,8.23
2023-04-15T01:49:29.153Z,9.13
2023-04-15T01:51:56.426Z,7.25
2023-04-15T01:54:23.654Z,9.10
2023-04-15T01:56:52.102Z,6.72
2023-04-15T01:59:19.350Z,6.43
2023-04-15T02:01:46.712Z,6.55
2023-04-15T02:04:16.722Z,6.35
2023-04-15T02:06:44.018Z,7.13
2023-04-15T02:09:12.525Z,5.80
2023-04-15T02:11:39.946Z,7.05
2023-04-15T02:14:07.287Z,6.50
2023-04-15T02:16:34.679Z,7.05
2023-04-15T02:19:02.276Z,6.22
2023-04-15T02:21:30.409Z,6.07
2023-04-15T02:23:57.690Z,8.27
2023-04-15T02:26:25.426Z,10.40
2023-04-15T02:28:54.774Z,6.93
2023-04-15T02:31:22.081Z,9.20
2023-04-15T02:33:49.849Z,9.55
2023-04-15T02:36:17.265Z,6.32
2023-04-15T02:38:44.816Z,3.55
2023-04-15T02:41:14.315Z,6.88
2023-04-15T02:43:41.770Z,10.80
2023-04-15T02:46:14.721Z,5.07
2023-04-15T02:48:42.182Z,4.13
2023-04-15T02:51:09.675Z,5.57
2023-04-15T02:53:36.945Z,9.75
2023-04-15T02:56:04.165Z,9.25
2023-04-15T02:58:31.819Z,6.50
2023-04-15T03:00:59.109Z,10.35
2023-04-15T03:03:28.212Z,7.70
2023-04-15T03:05:55.512Z,9.50
2023-04-15T03:08:23.053Z,7.82
2023-04-15T03:10:52.448Z,8.90
2023-04-15T03:13:19.826Z,4.30
2023-04-15T03:15:47.590Z,7.53
2023-04-15T03:18:15.021Z,7.50
2023-04-15T03:20:42.473Z,11.68
2023-04-15T03:23:10.089Z,5.15
2023-04-15T03:25:37.508Z,10.68
2023-04-15T03:28:06.680Z,6.93
2023-04-15T03:30:34.144Z,7.10
2023-04-15T03:33:01.487Z,6.30
2023-04-15T03:35:28.912Z,6.50
2023-04-15T03:37:56.337Z,8.45
2023-04-15T03:40:23.581Z,12.18
2023-04-15T03:42:50.989Z,4.65
2023-04-15T03:45:18.204Z,5.03
2023-04-15T03:47:45.573Z,5.15
2023-04-15T03:50:12.829Z,5.20
2023-04-15T03:52:40.057Z,7.75
2023-04-15T03:55:08.505Z,8.23
2023-04-15T03:57:39.756Z,6.57
2023-04-15T04:00:07.351Z,7.07
2023-04-15T04:05:06.647Z,12.80
2023-04-15T04:07:33.882Z,10.25
2023-04-15T04:10:01.311Z,10.05
2023-04-15T04:12:28.517Z,6.15
2023-04-15T04:14:55.779Z,9.35
2023-04-15T04:17:23.052Z,5.78
2023-04-15T04:19:50.376Z,7.40
2023-04-15T04:22:17.621Z,6.53
2023-04-15T04:24:44.936Z,6.43
2023-04-15T04:27:12.152Z,8.23
2023-04-15T04:29:39.420Z,6.18
2023-04-15T04:32:06.894Z,8.20
2023-04-15T04:34:34.150Z,7.80
2023-04-15T04:37:01.483Z,8.20
2023-04-15T04:39:28.817Z,7.15
2023-04-15T04:41:56.059Z,8.52
2023-04-15T04:44:23.362Z,6.50
2023-04-15T04:46:50.734Z,6.70
2023-04-15T04:49:18.214Z,10.00
2023-04-15T04:51:47.094Z,6.25
2023-04-15T04:54:14.371Z,5.60
2023-04-15T04:56:41.609Z,4.95
2023-04-15T04:59:09.448Z,7.50
2023-04-15T05:01:36.796Z,6.40
2023-04-15T05:04:05.468Z,6.00
2023-04-15T05:06:33.023Z,4.07
2023-04-15T05:09:01.395Z,4.53
2023-04-15T05:11:28.722Z,4.35
2023-04-15T05:13:56.141Z,7.32
2023-04-15T05:16:23.337Z,5.10
2023-04-15T05:18:50.622Z,4.75
2023-04-15T05:21:17.815Z,4.78
2023-04-15T05:23:45.202Z,8.13
2023-04-15T05:26:12.436Z,5.90
2023-04-15T05:28:39.640Z,4.22
2023-04-15T05:31:07.559Z,10.18
2023-04-15T05:33:34.909Z,4.63
2023-04-15T05:36:02.146Z,9.98
2023-04-15T05:38:29.474Z,8.10
2023-04-15T05:40:56.732Z,7.57
2023-04-15T05:43:24.022Z,7.10
2023-04-15T05:45:51.392Z,8.70
2023-04-15T05:48:18.701Z,6.20
2023-04-15T05:50:45.958Z,7.45
2023-04-15T05:53:13.225Z,6.30
2023-04-15T05:55:40.455Z,7.28
2023-04-15T05:58:07.772Z,6.57
2023-04-15T06:00:35.056Z,8.02
2023-04-15T06:03:02.448Z,12.20
2023-04-15T06:05:30.035Z,10.75
2023-04-15T06:07:57.705Z,7.45
2023-04-15T06:10:24.941Z,8.70
2023-04-15T06:12:52.365Z,8.93
2023-04-15T06:15:19.719Z,6.00
2023-04-15T06:17:47.216Z,7.32
2023-04-15T06:20:14.466Z,9.13
2023-04-15T06:22:41.826Z,6.72
2023-04-15T06:25:09.402Z,11.20
2023-04-15T06:27:36.691Z,6.82
2023-04-15T06:30:03.910Z,9.90
2023-04-15T06:32:31.137Z,7.93
2023-04-15T06:34:58.498Z,8.95
2023-04-15T06:37:25.907Z,5.88
2023-04-15T06:39:53.191Z,6.13
2023-04-15T06:42:20.406Z,6.53
2023-04-15T06:44:48.378Z,10.68
2023-04-15T06:47:15.852Z,6.10
2023-04-15T06:49:43.274Z,6.25
2023-04-15T06:52:10.529Z,7.80
2023-04-15T06:54:37.776Z,5.38
2023-04-15T06:57:05.030Z,7.45
2023-04-15T06:59:32.875Z,4.40
2023-04-15T07:02:00.269Z,6.03
2023-04-15T07:04:27.995Z,8.23
2023-04-15T07:06:58.294Z,7.65
2023-04-15T07:09:25.745Z,7.55
2023-04-15T07:11:52.983Z,5.43
2023-04-15T07:14:20.275Z,5.50
2023-04-15T07:16:47.561Z,4.35
2023-04-15T07:19:14.875Z,7.72
2023-04-15T07:21:42.370Z,6.32
2023-04-15T07:24:10.572Z,3.75
2023-04-15T07:26:37.788Z,6.40
2023-04-15T07:29:05.019Z,7.03
2023-04-15T07:31:32.306Z,5.88
2023-04-15T07:33:59.910Z,7.72
2023-04-15T07:36:27.155Z,6.32
2023-04-15T07:38:55.422Z,4.93
2023-04-15T07:41:22.642Z,5.93
2023-04-15T07:43:50.179Z,6.00
2023-04-15T07:46:17.502Z,5.03
2023-04-15T07:48:44.821Z,4.75
2023-04-15T07:51:13.008Z,4.68
2023-04-15T07:53:40.326Z,4.97
2023-04-15T07:56:07.608Z,7.88
2023-04-15T07:58:34.955Z,4.80
2023-04-15T08:01:02.214Z,5.25
2023-04-15T08:03:29.585Z,7.35
2023-04-15T08:05:57.561Z,7.03
2023-04-15T08:08:25.473Z,7.53
2023-04-15T08:10:52.992Z,5.22
2023-04-15T08:13:20.259Z,5.45
2023-04-15T08:15:47.526Z,4.85
2023-04-15T08:18:14.932Z,7.82
2023-04-15T08:20:42.498Z,5.13
2023-04-15T08:23:10.198Z,4.40
2023-04-15T08:25:37.457Z,3.90
2023-04-15T08:28:05.264Z,6.07
2023-04-15T08:30:32.493Z,7.38
2023-04-15T08:32:59.750Z,4.95
2023-04-15T08:35:27.416Z,7.50
2023-04-15T08:37:54.702Z,7.32
2023-04-15T08:40:21.946Z,7.43
2023-04-15T08:42:49.192Z,6.53
2023-04-15T08:45:16.831Z,6.18
2023-04-15T08:47:44.161Z,6.10
2023-04-15T08:50:11.849Z,7.57
2023-04-15T08:52:39.157Z,5.78
2023-04-15T08:55:06.335Z,6.43
2023-04-15T08:57:33.605Z,6.45
2023-04-15T09:00:02.293Z,5.72
2023-04-15T09:02:30.360Z,9.65
2023-04-15T09:04:57.725Z,8.82
2023-04-15T09:07:25.118Z,5.90
2023-04-15T09:09:52.881Z,8.20
2023-04-15T09:12:20.149Z,9.75
2023-04-15T09:14:48.256Z,6.03
2023-04-15T09:17:15.652Z,7.45
2023-04-15T09:19:42.906Z,6.00
2023-04-15T09:22:10.812Z,5.55
2023-04-15T09:24:38.746Z,7.30
2023-04-15T09:27:06.390Z,5.22
2023-04-15T09:29:33.642Z,5.32
2023-04-15T09:32:01.018Z,5.72
2023-04-15T09:34:28.230Z,7.00
2023-04-15T09:36:55.836Z,6.38
2023-04-15T09:39:23.178Z,5.80
2023-04-15T09:41:50.403Z,5.68
2023-04-15T09:44:17.659Z,5.97
2023-04-15T09:46:44.924Z,8.63
2023-04-15T09:49:12.285Z,5.65
2023-04-15T09:51:39.501Z,7.18
2023-04-15T09:54:07.403Z,4.28
2023-04-15T09:56:34.776Z,4.10
2023-04-15T09:59:02.138Z,8.23
2023-04-15T10:01:29.419Z,4.38
2023-04-15T10:03:57.025Z,4.82
2023-04-15T10:06:24.280Z,3.83
2023-04-15T10:08:51.638Z,5.50
2023-04-15T10:11:18.856Z,4.82
2023-04-15T10:13:46.154Z,4.43
2023-04-15T10:16:13.525Z,3.97
2023-04-15T10:18:41.045Z,4.72
2023-04-15T10:21:08.280Z,3.30
2023-04-15T10:23:35.554Z,4.07
2023-04-15T10:26:02.840Z,6.95
2023-04-15T10:28:30.586Z,6.50
2023-04-15T10:30:58.060Z,4.88
2023-04-15T10:33:25.303Z,5.07
2023-04-15T10:35:52.582Z,3.83
2023-04-15T10:38:19.887Z,4.80
2023-04-15T10:40:47.273Z,4.57
2023-04-15T10:43:14.484Z,5.00
2023-04-15T10:45:41.762Z,4.05
2023-04-15T10:48:09.248Z,6.13
2023-04-15T10:50:36.520Z,4.60
2023-04-15T10:53:04.791Z,5.63
2023-04-15T10:55:32.011Z,5.20
2023-04-15T10:57:59.345Z,4.55
2023-04-15T11:00:26.812Z,6.40
2023-04-15T11:02:54.220Z,4.13
2023-04-15T11:05:21.632Z,3.50
2023-04-15T11:07:48.973Z,3.22
2023-04-15T11:10:16.140Z,5.53
2023-04-15T11:12:43.556Z,3.25
2023-04-15T11:15:10.764Z,4.90
2023-04-15T11:17:38.033Z,4.78
2023-04-15T11:20:06.282Z,6.78
2023-04-15T11:22:33.571Z,4.22
2023-04-15T11:25:00.745Z,8.60
2023-04-15T11:27:28.021Z,4.13
2023-04-15T11:29:55.275Z,5.32
2023-04-15T11:32:22.675Z,5.88
2023-04-15T11:34:49.868Z,6.65
2023-04-15T11:37:17.178Z,4.50
2023-04-15T11:39:44.394Z,5.13
2023-04-15T11:42:11.637Z,4.20
2023-04-15T11:44:38.881Z,7.22
2023-04-15T11:47:06.368Z,3.70
2023-04-15T11:49:34.983Z,6.65
2023-04-15T11:52:02.231Z,7.30
2023-04-15T11:54:29.434Z,9.52
2023-04-15T11:56:57.428Z,4.85
2023-04-15T11:59:26.439Z,7.05
2023-04-15T12:01:57.587Z,3.35
2023-04-15T12:04:25.799Z,5.25
2023-04-15T12:06:53.262Z,3.92
2023-04-15T12:09:20.658Z,4.60
2023-04-15T12:11:48.382Z,6.35
2023-04-15T12:14:15.594Z,6.82
2023-04-15T12:16:49.380Z,5.93
2023-04-15T12:19:17.377Z,2.33
2023-04-15T12:21:44.792Z,4.68
2023-04-15T12:24:12.495Z,4.45
2023-04-15T12:26:39.679Z,10.57
2023-04-15T12:29:07.555Z,5.38
2023-04-15T12:31:34.840Z,4.57
2023-04-15T12:34:02.245Z,6.00
2023-04-15T12:36:31.755Z,6.40
2023-04-15T12:38:58.959Z,4.53
2023-04-15T12:41:26.350Z,7.13
2023-04-15T12:43:53.575Z,4.82
2023-04-15T12:46:20.901Z,5.07
2023-04-15T12:48:48.224Z,3.08
2023-04-15T12:51:15.527Z,3.10
2023-04-15T12:53:42.815Z,6.28
2023-04-15T12:56:10.163Z,4.80
2023-04-15T12:58:37.485Z,4.28
2023-04-15T13:01:04.751Z,8.50
2023-04-15T13:03:32.217Z,6.07
2023-04-15T13:06:00.578Z,7.75
2023-04-15T13:08:27.866Z,6.45
2023-04-15T13:10:55.063Z,2.00
2023-04-15T13:13:22.454Z,5.63
2023-04-15T13:15:49.734Z,5.78
2023-04-15T13:18:16.974Z,4.95
2023-04-15T13:20:44.178Z,5.95
2023-04-15T13:23:11.607Z,6.85
2023-04-15T13:25:38.816Z,4.90
2023-04-15T13:28:06.084Z,8.85
2023-04-15T13:30:33.321Z,5.13
2023-04-15T13:33:00.714Z,6.53
2023-04-15T13:35:27.945Z,4.13
2023-04-15T13:37:56.346Z,3.75
2023-04-15T13:40:23.516Z,5.90
2023-04-15T13:42:50.784Z,7.53
2023-04-15T13:45:18.090Z,7.10
2023-04-15T13:47:45.468Z,7.18
2023-04-15T13:50:12.809Z,7.88
2023-04-15T13:52:40.089Z,3.10
2023-04-15T13:55:18.178Z,5.15
2023-04-15T13:57:47.147Z,7.53
2023-04-15T14:00:14.740Z,6.28
2023-04-15T14:02:42.645Z,7.80
2023-04-15T14:05:09.961Z,4.85
2023-04-15T14:07:37.351Z,7.53
2023-04-15T14:10:04.664Z,5.95
2023-04-15T14:12:31.980Z,5.03
2023-04-15T14:14:59.199Z,8.88
2023-04-15T14:17:26.493Z,7.43
2023-04-15T14:19:53.682Z,3.30
2023-04-15T14:22:21.040Z,6.88
2023-04-15T14:24:49.282Z,7.45
2023-04-15T14:27:16.749Z,4.32
2023-04-15T14:29:43.996Z,5.43
2023-04-15T14:32:12.937Z,8.57
2023-04-15T14:34:40.358Z,4.30
2023-04-15T14:37:07.677Z,10.57
2023-04-15T14:39:34.939Z,7.47
2023-04-15T14:42:02.406Z,9.52
2023-04-15T14:44:32.310Z,7.68
2023-04-15T14:46:59.589Z,7.47
2023-04-15T14:49:26.902Z,12.15
2023-04-15T14:51:54.075Z,8.70
2023-04-15T14:54:22.498Z,11.10
2023-04-15T14:56:49.880Z,10.38
2023-04-15T14:59:17.213Z,14.80
2023-04-15T15:01:44.523Z,11.82
2023-04-15T15:04:11.919Z,17.48
2023-04-15T15:06:39.274Z,11.05
2023-04-15T15:09:06.776Z,8.25
2023-04-15T15:11:34.280Z,12.75
2023-04-15T15:14:01.571Z,13.65
2023-04-15T15:16:29.397Z,13.48
2023-04-15T15:18:56.847Z,9.25
2023-04-15T15:21:24.107Z,12.40
2023-04-15T15:23:51.869Z,13.00
2023-04-15T15:26:19.476Z,15.63
2023-04-15T15:28:46.836Z,12.93
2023-04-15T15:31:14.143Z,11.95
2023-04-15T15:33:41.410Z,16.27
2023-04-15T15:36:08.653Z,15.18
2023-04-15T15:38:35.903Z,14.02
2023-04-15T15:41:03.201Z,17.90
2023-04-15T15:43:30.420Z,18.42
2023-04-15T15:45:57.734Z,24.52
2023-04-15T15:48:24.966Z,31.45
2023-04-15T15:50:52.245Z,12.57
2023-04-15T15:53:21.006Z,25.63
2023-04-15T15:55:48.458Z,35.38
2023-04-15T15:58:15.655Z,30.20
2023-04-15T16:00:43.131Z,24.65
2023-04-15T16:03:10.573Z,35.10
2023-04-15T16:05:37.976Z,28.55
2023-04-15T16:08:05.326Z,40.28
2023-04-15T16:10:32.632Z,16.75
2023-04-15T16:12:59.814Z,15.00
2023-04-15T16:15:27.086Z,15.15
2023-04-15T16:17:54.396Z,23.60
2023-04-15T16:20:21.716Z,25.45
2023-04-15T16:22:48.948Z,20.55
2023-04-15T16:25:16.261Z,19.65
2023-04-15T16:27:57.748Z,18.85
2023-04-15T16:30:29.120Z,28.98
2023-04-15T16:32:56.587Z,34.95
2023-04-15T16:35:23.920Z,28.10
2023-04-15T16:37:51.264Z,33.53
2023-04-15T16:40:18.662Z,34.65
2023-04-15T16:42:45.990Z,38.63
2023-04-15T16:45:13.288Z,30.45
2023-04-15T16:47:40.546Z,26.00
2023-04-15T16:50:07.964Z,18.80
2023-04-15T16:52:35.386Z,15.70
2023-04-15T16:55:02.622Z,29.15
2023-04-15T16:57:50.670Z,14.73
2023-04-15T17:00:17.285Z,21.05
2023-04-15T17:02:44.639Z,18.58
2023-04-15T17:05:12.007Z,20.63
2023-04-15T17:07:39.266Z,17.08
2023-04-15T17:10:06.617Z,24.17
2023-04-15T17:12:33.897Z,26.42
2023-04-15T17:15:01.181Z,22.38
2023-04-15T17:17:28.369Z,22.90
2023-04-15T17:19:55.752Z,13.65
2023-04-15T17:22:23.032Z,41.22
2023-04-15T17:24:50.363Z,15.48
2023-04-15T17:27:17.572Z,20.77
2023-04-15T17:29:44.936Z,27.08
2023-04-15T17:32:12.177Z,18.10
2023-04-15T17:34:49.603Z,12.43
2023-04-15T17:37:18.785Z,24.25
2023-04-15T17:39:46.272Z,21.08
2023-04-15T17:42:13.661Z,22.08
2023-04-15T17:44:40.923Z,23.27
2023-04-15T17:47:08.192Z,31.33
2023-04-15T17:49:37.773Z,17.85
2023-04-15T17:52:05.125Z,23.58
2023-04-15T17:54:32.486Z,32.40
2023-04-15T17:57:00.278Z,26.30
2023-04-15T17:59:27.722Z,16.88
2023-04-15T18:01:55.024Z,14.05
2023-04-15T18:04:25.651Z,20.25
2023-04-15T18:06:53.904Z,15.13
2023-04-15T18:09:21.231Z,22.65
2023-04-15T18:11:49.044Z,13.35
2023-04-15T18:14:27.120Z,19.23
2023-04-15T18:17:00.854Z,21.53
2023-04-15T18:19:28.073Z,35.00
2023-04-15T18:21:55.444Z,23.02
2023-04-15T18:24:22.736Z,25.10
2023-04-15T18:26:50.030Z,17.17
2023-04-15T18:29:18.630Z,13.70
2023-04-15T18:31:46.213Z,12.68
2023-04-15T18:34:13.502Z,23.05
2023-04-15T18:36:40.815Z,35.20
2023-04-15T18:39:08.359Z,16.35
2023-04-15T18:41:35.773Z,21.15
2023-04-15T18:44:03.014Z,21.25
2023-04-15T18:46:30.272Z,28.25
2023-04-15T18:48:57.539Z,13.27
2023-04-15T18:51:24.823Z,15.73
2023-04-15T18:53:52.088Z,24.83
2023-04-15T18:56:19.432Z,24.40
2023-04-15T18:59:08.830Z,19.63
2023-04-15T19:01:33.983Z,35.85
2023-04-15T19:04:02.462Z,24.83
2023-04-15T19:06:29.793Z,23.30
2023-04-15T19:08:58.752Z,12.43
2023-04-15T19:11:26.158Z,7.78
2023-04-15T19:13:53.448Z,15.23
2023-04-15T19:16:21.102Z,6.15
2023-04-15T19:18:48.359Z,12.20
2023-04-15T19:21:16.114Z,8.57
2023-04-15T19:23:43.431Z,7.75
2023-04-15T19:26:10.795Z,9.35
2023-04-15T19:28:39.216Z,12.10
2023-04-15T19:31:06.791Z,12.70
2023-04-15T19:33:34.052Z,6.65
2023-04-15T19:36:01.371Z,9.82
2023-04-15T19:38:28.633Z,7.97
2023-04-15T19:40:56.087Z,12.50
2023-04-15T19:43:23.352Z,9.10
2023-04-15T19:45:52.898Z,8.18
2023-04-15T19:48:20.244Z,8.15
2023-04-15T19:50:47.482Z,11.82
2023-04-15T19:53:14.843Z,10.02
2023-04-15T19:55:42.125Z,3.83
2023-04-15T19:58:09.408Z,6.03
2023-04-15T20:00:36.636Z,11.13
2023-04-15T20:03:05.255Z,5.72
2023-04-15T20:05:32.632Z,11.40
2023-04-15T20:07:59.996Z,10.75
2023-04-15T20:10:27.558Z,9.70
2023-04-15T20:12:54.803Z,7.78
2023-04-15T20:15:23.828Z,6.60
2023-04-15T20:17:51.456Z,9.02
2023-04-15T20:20:18.787Z,9.98
2023-04-15T20:22:46.097Z,7.60
2023-04-15T20:25:13.328Z,8.68
2023-04-15T20:27:40.674Z,8.95
2023-04-15T20:30:07.903Z,7.93
2023-04-15T20:32:36.084Z,6.57
2023-04-15T20:35:03.517Z,9.15
2023-04-15T20:37:32.989Z,8.27
2023-04-15T20:40:00.383Z,5.93
2023-04-15T20:42:27.715Z,7.35
2023-04-15T20:44:54.945Z,12.35
2023-04-15T20:47:22.434Z,9.50
2023-04-15T20:49:49.943Z,7.35
2023-04-15T20:52:17.160Z,7.22
2023-04-15T20:54:44.564Z,9.68
2023-04-15T20:57:11.743Z,7.28
2023-04-15T20:59:39.249Z,16.27
2023-04-15T21:02:06.680Z,8.18
2023-04-15T21:04:33.980Z,10.02
2023-04-15T21:07:01.319Z,8.18
2023-04-15T21:09:28.693Z,6.47
2023-04-15T21:14:26.133Z,9.50
2023-04-15T21:16:53.747Z,8.40
2023-04-15T21:19:21.067Z,6.32
2023-04-15T21:21:48.258Z,14.77
2023-04-15T21:24:15.591Z,13.73
2023-04-15T21:26:42.843Z,14.20
2023-04-15T21:29:11.692Z,12.10
2023-04-15T21:31:39.392Z,11.93
2023-04-15T21:34:06.633Z,9.60
2023-04-15T21:36:33.997Z,11.07
2023-04-15T21:39:01.340Z,11.02
2023-04-15T21:41:28.585Z,13.35
2023-04-15T21:43:55.941Z,11.63
2023-04-15T21:46:25.621Z,12.43
2023-04-15T21:48:59.915Z,9.25
2023-04-15T21:51:27.755Z,11.55
2023-04-15T21:53:55.119Z,10.95
2023-04-15T21:56:24.257Z,14.48
2023-04-15T21:58:51.728Z,13.30
2023-04-15T22:01:19.012Z,8.32
2023-04-15T22:03:46.579Z,7.07
2023-04-15T22:06:13.907Z,9.98
2023-04-15T22:08:52.491Z,9.68
2023-04-15T22:11:27.496Z,6.82
2023-04-15T22:13:55.599Z,6.60
2023-04-15T22:16:22.817Z,10.50
2023-04-15T22:18:50.200Z,7.40
2023-04-15T22:21:17.428Z,9.18
2023-04-15T22:23:44.670Z,9.95
2023-04-15T22:26:11.900Z,16.00
2023-04-15T22:28:39.184Z,13.07
2023-04-15T22:31:06.591Z,8.88
2023-04-15T22:33:33.964Z,12.25
2023-04-15T22:36:01.217Z,16.77
2023-04-15T22:38:28.542Z,11.25
2023-04-15T22:40:55.853Z,35.50
2023-04-15T22:43:23.130Z,14.77
2023-04-15T22:45:50.681Z,16.30
